PHNLFMMI

Guest
Details From PHNL - Honolulu Intl
To FMMI - Ivato
Flight Number -
Tags Generated
Created
Modified
Stats Distance 9,372 nm / 17,357 km
Max Altitude 0 ft / 0 m
Waypoints 6
Social Downloads 1
Likes 0
Share VATSIM

Download

Looking for another format? Having issues loading an existing format? Contact us
Advertisement - Login to hide

Notes

Generated

Route

PHNL GUMGE KAMBE BU TNV FMMI

ID Type Via Altitude Latitude Longitude Leg Dist Tot Dist Heading (true) Name
O PHNL APT - 0 ft / 0 m 21.31833˚ -157.92332˚ - 0 nm - Honolulu Intl
GUMGE FIX - 0 ft / 0 m 13.08542˚ 145.19781˚ 3284 nm 3284 nm 271° / 253° -
KAMBE FIX - 0 ft / 0 m 6.18942˚ 124.68962˚ 1282 nm 4566 nm 253° / 250° -
BU NDB - 0 ft / 0 m 3.45333˚ 117.86500˚ 440 nm 5006 nm 248° / 248° BUNYU NDB
TNV VOR - 0 ft / 0 m -18.80333˚ 47.51867˚ 4362 nm 9368 nm 249° / 260° IVATO VOR-DME
O FMMI APT - 0 ft / 0 m -18.79479˚ 47.46427˚ 3 nm 9371 nm 279° / 279° -

Altitude Profile

Advertisement - Login to hide

Weather


0- 5 10 15 20 25 30 35+ Temperature / ° C

Clouds and Precipitation
Forecast for 2018-05-23 00:00 UTC. Updated 3 hours ago

Ground ~20,000 ft ~40,000 ft Winds

PHNL

Details ICAO PHNL (HNL)
Name Honolulu Intl
Region USA (Hawaii)
Timezone Pacific/Honolulu (UTC-10.0)
Stats Elevation 13 ft / 4 m (AMSL)
Location 21.319376° -157.921281°
Runways 4
Magnetic Variation 9.468° E

METAR

PHNL 230153Z COR 06017G23KT 10SM -RA FEW024 SCT036 BKN055 BKN280 27/18 A3002 RMK AO2 RAB53 SLP164 P0000 T02670178

Decode

TAF

TAF AMD PHNL 230211Z 2302/2406 04014G22KT P6SM VCSH FEW025 SCT045 FM230600 05011KT P6SM FEW025 SCT050 FM232000 05015KT P6SM FEW025 SCT050 FM240500 05011KT P6SM FEW025 SCT050

Decode

Departure Runways

ID Width Length Bearing (true) Bearing (mag) Surface Threshold Offset Overrun Length
04L 150 ft / 46 m 6,958 ft / 2,121 m 52.84° 43.37° Asphalt 0 ft / 0 m 215 ft / 66 m
04R 150 ft / 46 m 9,008 ft / 2,746 m 52.86° 43.39° Asphalt 0 ft / 0 m 200 ft / 61 m
08L 150 ft / 46 m 12,285 ft / 3,744 m 90.00° 80.53° Asphalt 0 ft / 0 m 1,000 ft / 305 m
08R 200 ft / 61 m 11,985 ft / 3,653 m 90.00° 80.53° Asphalt 0 ft / 0 m 700 ft / 213 m
22L 150 ft / 46 m 9,008 ft / 2,746 m 232.86° 223.39° Asphalt 0 ft / 0 m 215 ft / 66 m
22R 150 ft / 46 m 6,958 ft / 2,121 m 232.85° 223.38° Asphalt 0 ft / 0 m 0 ft / 0 m
26L 200 ft / 61 m 11,985 ft / 3,653 m 270.01° 260.54° Asphalt 0 ft / 0 m 700 ft / 213 m
26R 150 ft / 46 m 12,285 ft / 3,744 m 270.01° 260.54° Asphalt 0 ft / 0 m 655 ft / 200 m

FMMI

Details ICAO FMMI (TNR)
Name IVATO
Region Comoros, Mayotte, Réunion and Madagascar
Timezone Indian/Antananarivo (UTC+3.0)
Stats Elevation 4,198 ft / 1,280 m (AMSL)
Location -18.796950° 47.478806°
Runways 1
Magnetic Variation 15.172° W

METAR

FMMI 230200Z 15007KT 120V190 9999 BKN017 15/13 Q1025 NOSIG

Decode

TAF

TAF FMMI 222300Z 2300/2406 15008KT 9999 FEW007 BKN020= TAF FMEE 222300Z 2300/2406 14012KT 9999 SCT026 PROB30 TEMPO 2300/2306 4500 SHRA BECMG 2305/2306 12020G30KT BECMG 2313/2315 14014KT

Decode

Destination Runways

ID Width Length Bearing (true) Bearing (mag) Surface Threshold Offset Overrun Length
11 148 ft / 45 m 10,167 ft / 3,099 m 98.92° 114.09° Asphalt 0 ft / 0 m 90 ft / 27 m
29 148 ft / 45 m 10,167 ft / 3,099 m 278.91° 294.08° Asphalt 0 ft / 0 m 90 ft / 27 m

Approach Navaids

Runway Type Ident Frequency Range Bearing (true) Bearing (mag) Slope Elevation
11 Localiser IO 109.50 MHz 18 nm / 33 km 98.89° 114.06° - 4,125 ft / 1,257 m (AMSL)
11 Glidescope IO 109.50 MHz 10 nm / 19 km 98.91° 114.08° 3.00° 4,198 ft / 1,280 m (AMSL)

Popular Alternatives